Time;durP1;ratioP1;P1;durP2;ratioP2;P2;SDS_P1;SDS_P2;PMS_P1;PMS_P2;Temp;Humidity;BMP_temperature;BMP_pressure;BME280_temperature;BME280_humidity;BME280_pressure;Samples;Min_cycle;Max_cycle;Signal;HPM_P1;HPM_P2
2023/04/16 00:00:47;;;;;;;;;;;;;;;15.87;56.61;102283.69;2071297;28;19925;-55
2023/04/16 00:01:50;;;;;;;;;;;;;;;15.87;56.74;102287.19;2072327;28;20857;-55
2023/04/16 00:02:52;;;;;;;;;;;;;;;15.88;56.76;102286.09;2075094;28;19929;-55
2023/04/16 00:03:55;;;;;;;;;;;;;;;15.87;56.77;102287.19;2072598;28;19930;-55
2023/04/16 00:04:57;;;;;;;;;;;;;;;15.88;56.74;102296.19;2071290;28;19979;-55
2023/04/16 00:06:00;;;;;;;;;;;;;;;15.87;56.64;102295.38;2078977;28;19925;-56
2023/04/16 00:07:01;;;;;;;;;;;;;;;15.87;56.66;102287.19;2076432;28;19948;-56
2023/04/16 00:08:05;;;;;;;;;;;;;;;15.88;56.56;102301.63;2075587;28;20104;-56
2023/04/16 00:09:06;;;;;;;;;;;;;;;15.87;56.74;102294.59;2062605;28;20009;-55
2023/04/16 00:10:13;;;;;;;;;;;;;;;15.87;56.83;102297.31;2062161;28;20386;-55
2023/04/16 00:11:15;;;;;;;;;;;;;;;15.87;56.70;102295.38;2062241;28;20333;-55
2023/04/16 00:12:18;;;;;;;;;;;;;;;15.87;56.68;102291.88;2066830;28;19981;-56
2023/04/16 00:13:20;;;;;;;;;;;;;;;15.87;56.66;102295.38;2062226;28;20472;-56
2023/04/16 00:14:24;;;;;;;;;;;;;;;15.88;56.72;102296.19;2062419;28;20032;-55
2023/04/16 00:15:26;;;;;;;;;;;;;;;15.86;56.75;102291.06;2071672;28;20305;-55
2023/04/16 00:16:29;;;;;;;;;;;;;;;15.87;56.68;102289.94;2070977;28;20409;-56
2023/04/16 00:17:31;;;;;;;;;;;;;;;15.87;56.77;102289.16;2073846;28;19940;-55
2023/04/16 00:18:33;;;;;;;;;;;;;;;15.87;56.71;102292.66;2072714;28;19930;-56
2023/04/16 00:19:36;;;;;;;;;;;;;;;15.86;56.68;102293.78;2063751;28;19945;-56
2023/04/16 00:20:38;;;;;;;;;;;;;;;15.87;56.57;102292.66;2063041;28;19973;-56
2023/04/16 00:21:41;;;;;;;;;;;;;;;15.86;56.65;102293.78;2071623;28;19953;-57
2023/04/16 00:22:42;;;;;;;;;;;;;;;15.86;56.59;102290.28;2072434;28;20015;-57
2023/04/16 00:23:45;;;;;;;;;;;;;;;15.87;56.62;102294.59;2072092;28;19948;-53
2023/04/16 00:24:47;;;;;;;;;;;;;;;15.87;56.66;102292.66;2070575;28;19929;-56
2023/04/16 00:25:52;;;;;;;;;;;;;;;15.86;56.78;102299.25;2078445;28;20015;-56
2023/04/16 00:26:54;;;;;;;;;;;;;;;15.87;56.54;102295.38;2071039;28;20019;-56
2023/04/16 00:27:57;;;;;;;;;;;;;;;15.86;56.55;102293.78;2071221;28;19937;-56
2023/04/16 00:28:59;;;;;;;;;;;;;;;15.86;56.75;102293.78;2072280;28;19972;-57
2023/04/16 00:30:03;;;;;;;;;;;;;;;15.86;56.71;102291.06;2070263;28;19933;-55
2023/04/16 00:31:05;;;;;;;;;;;;;;;15.86;56.57;102291.06;2063239;28;20021;-55
2023/04/16 00:32:07;;;;;;;;;;;;;;;15.86;56.67;102295.72;2066892;28;20365;-55
2023/04/16 00:33:09;;;;;;;;;;;;;;;15.86;56.61;102291.06;2069636;28;20419;-57
2023/04/16 00:34:12;;;;;;;;;;;;;;;15.86;56.86;102293.78;2070339;28;20556;-54
2023/04/16 00:35:14;;;;;;;;;;;;;;;15.86;56.63;102293.00;2071944;28;19929;-55
2023/04/16 00:36:17;;;;;;;;;;;;;;;15.86;56.47;102291.06;2069180;28;19979;-55
2023/04/16 00:37:19;;;;;;;;;;;;;;;15.86;56.79;102285.63;2071051;28;19929;-55
2023/04/16 00:38:22;;;;;;;;;;;;;;;15.86;56.68;102291.06;2071996;28;19980;-56
2023/04/16 00:39:24;;;;;;;;;;;;;;;15.86;56.77;102291.06;2062667;28;20440;-54
2023/04/16 00:40:27;;;;;;;;;;;;;;;15.86;56.57;102282.09;2062913;28;19937;-57
2023/04/16 00:41:30;;;;;;;;;;;;;;;15.86;56.66;102288.34;2076958;28;19929;-56
2023/04/16 00:42:33;;;;;;;;;;;;;;;15.86;56.83;102291.06;2075592;28;19975;-56
2023/04/16 00:43:35;;;;;;;;;;;;;;;15.86;56.40;102301.97;2072936;28;19929;-55
2023/04/16 00:44:38;;;;;;;;;;;;;;;15.85;56.64;102292.22;2069238;28;20385;-57
2023/04/16 00:45:40;;;;;;;;;;;;;;;15.86;56.53;102293.78;2073647;28;19936;-57
2023/04/16 00:46:43;;;;;;;;;;;;;;;15.85;56.62;102294.94;2070730;28;19950;-56
2023/04/16 00:47:45;;;;;;;;;;;;;;;15.87;56.73;102298.09;2073402;28;20016;-55
2023/04/16 00:48:48;;;;;;;;;;;;;;;15.86;56.83;102301.16;2071625;28;19933;-56
2023/04/16 00:49:50;;;;;;;;;;;;;;;15.86;56.75;102303.88;2071713;28;20305;-56
2023/04/16 00:50:54;;;;;;;;;;;;;;;15.85;56.83;102292.22;2069458;28;19934;-56
2023/04/16 00:51:56;;;;;;;;;;;;;;;15.86;56.73;102298.44;2072564;28;19929;-56
2023/04/16 00:52:58;;;;;;;;;;;;;;;15.85;56.59;102296.88;2071400;28;20423;-56
2023/04/16 00:54:00;;;;;;;;;;;;;;;15.85;56.75;102305.84;2073178;28;19929;-56
2023/04/16 00:55:04;;;;;;;;;;;;;;;15.85;56.70;102299.59;2064460;28;20290;-56
2023/04/16 00:56:06;;;;;;;;;;;;;;;15.85;56.56;102311.28;2068075;28;19929;-56
2023/04/16 00:57:10;;;;;;;;;;;;;;;15.86;56.59;102303.88;2073607;28;19929;-56
2023/04/16 00:58:12;;;;;;;;;;;;;;;15.85;56.83;102310.47;2077064;28;19944;-56
2023/04/16 00:59:16;;;;;;;;;;;;;;;15.85;56.42;102308.56;2064344;28;20029;-55
2023/04/16 01:00:19;;;;;;;;;;;;;;;15.85;56.79;102307.75;2065787;28;19929;-56
2023/04/16 01:01:21;;;;;;;;;;;;;;;15.85;56.49;102308.56;2068950;28;19929;-56
2023/04/16 01:02:23;;;;;;;;;;;;;;;15.85;56.65;102313.19;2073764;28;19987;-56
2023/04/16 01:03:30;;;;;;;;;;;;;;;15.84;56.75;102312.41;2071479;28;19980;-60
2023/04/16 01:04:32;;;;;;;;;;;;;;;15.84;56.74;102312.41;2068233;28;19963;-55
2023/04/16 01:05:35;;;;;;;;;;;;;;;15.85;56.52;102307.75;2055376;28;19930;-55
2023/04/16 01:06:37;;;;;;;;;;;;;;;15.85;56.50;102314.00;2063008;28;19930;-56
2023/04/16 01:07:40;;;;;;;;;;;;;;;15.84;56.69;102306.94;2065745;28;19999;-57
2023/04/16 01:08:41;;;;;;;;;;;;;;;15.85;56.48;102313.19;2074346;28;20011;-55
2023/04/16 01:09:44;;;;;;;;;;;;;;;15.85;56.49;102308.56;2078005;28;20343;-55
2023/04/16 01:10:46;;;;;;;;;;;;;;;15.84;56.46;102309.69;2073290;28;19979;-55
2023/04/16 01:11:48;;;;;;;;;;;;;;;15.85;56.50;102318.66;2078118;28;19929;-55
2023/04/16 01:12:51;;;;;;;;;;;;;;;15.85;56.70;102313.19;2075805;28;19926;-56
2023/04/16 01:13:54;;;;;;;;;;;;;;;15.85;56.50;102310.47;2072600;28;19929;-56
2023/04/16 01:14:56;;;;;;;;;;;;;;;15.85;56.79;102314.00;2072506;28;19930;-56
2023/04/16 01:15:59;;;;;;;;;;;;;;;15.84;56.28;102315.13;2078043;28;19980;-53
2023/04/16 01:17:01;;;;;;;;;;;;;;;15.85;56.57;102319.47;2077236;28;19929;-55
2023/04/16 01:18:03;;;;;;;;;;;;;;;15.85;56.67;102327.63;2073607;28;20677;-56
2023/04/16 01:19:05;;;;;;;;;;;;;;;15.84;56.69;102317.06;2080089;28;20419;-56
2023/04/16 01:20:08;;;;;;;;;;;;;;;15.84;56.50;102327.97;2071523;28;20008;-53
2023/04/16 01:21:11;;;;;;;;;;;;;;;15.84;56.57;102320.56;2073664;28;19936;-56
2023/04/16 01:22:15;;;;;;;;;;;;;;;15.84;56.55;102317.84;2076296;28;19975;-56
2023/04/16 01:23:17;;;;;;;;;;;;;;;15.84;56.66;102317.84;2072044;28;19968;-54
2023/04/16 01:24:20;;;;;;;;;;;;;;;15.84;56.74;102317.06;2076619;28;20448;-54
2023/04/16 01:25:22;;;;;;;;;;;;;;;15.84;56.67;102312.41;2067950;28;19930;-56
2023/04/16 01:26:24;;;;;;;;;;;;;;;15.84;56.65;102314.34;2062972;28;19933;-53
2023/04/16 01:27:26;;;;;;;;;;;;;;;15.84;56.68;102317.06;2065249;28;19934;-55
2023/04/16 01:28:29;;;;;;;;;;;;;;;15.84;56.57;102317.06;2072683;28;19929;-54
2023/04/16 01:29:30;;;;;;;;;;;;;;;15.84;56.74;102320.56;2071200;28;19937;-53
2023/04/16 01:30:34;;;;;;;;;;;;;;;15.84;56.66;102308.91;2064303;28;20405;-56
2023/04/16 01:31:50;;;;;;;;;;;;;;;15.84;56.67;102317.06;2065850;28;19976;-55
2023/04/16 01:33:00;;;;;;;;;;;;;;;15.84;56.56;102317.84;2076326;28;19936;-56
2023/04/16 01:34:02;;;;;;;;;;;;;;;15.84;56.63;102320.56;2058588;28;19997;-55
2023/04/16 01:35:05;;;;;;;;;;;;;;;15.83;56.71;102310.81;2053036;28;19978;-54
2023/04/16 01:36:07;;;;;;;;;;;;;;;15.84;56.48;102311.63;2064267;28;20753;-54
2023/04/16 01:37:12;;;;;;;;;;;;;;;15.83;56.44;102313.53;2072663;28;19980;-55
2023/04/16 01:38:13;;;;;;;;;;;;;;;15.83;56.49;102313.53;2072924;28;19941;-54
2023/04/16 01:39:18;;;;;;;;;;;;;;;15.84;56.48;102317.06;2065072;28;20365;-54
2023/04/16 01:40:19;;;;;;;;;;;;;;;15.83;56.79;102313.53;2070144;28;19976;-54
2023/04/16 01:41:22;;;;;;;;;;;;;;;15.83;56.42;102316.25;2072798;28;19936;-56
2023/04/16 01:42:24;;;;;;;;;;;;;;;15.83;56.64;102324.44;2069998;28;19980;-55
2023/04/16 01:43:26;;;;;;;;;;;;;;;15.83;56.69;102319.00;2074947;28;19925;-55
2023/04/16 01:44:29;;;;;;;;;;;;;;;15.83;56.67;102316.25;2071495;28;19933;-55
2023/04/16 01:45:33;;;;;;;;;;;;;;;15.83;56.74;102316.25;2061063;28;19969;-55
2023/04/16 01:46:35;;;;;;;;;;;;;;;15.83;56.72;102319.00;2059792;28;19934;-55
2023/04/16 01:47:37;;;;;;;;;;;;;;;15.82;56.66;102309.25;2063809;28;20374;-55
2023/04/16 01:48:39;;;;;;;;;;;;;;;15.83;56.61;102319.00;2071358;28;19972;-56
2023/04/16 01:49:44;;;;;;;;;;;;;;;15.83;56.49;102316.25;2072821;28;20605;-55
2023/04/16 01:50:46;;;;;;;;;;;;;;;15.83;56.70;102313.53;2063405;28;19930;-54
2023/04/16 01:51:48;;;;;;;;;;;;;;;15.82;56.49;102317.41;2063890;28;20033;-55
2023/04/16 01:52:51;;;;;;;;;;;;;;;15.83;56.66;102319.00;2073029;28;20392;-55
2023/04/16 01:53:57;;;;;;;;;;;;;;;15.83;56.47;102321.72;2074455;28;19933;-55
2023/04/16 01:54:58;;;;;;;;;;;;;;;15.82;56.48;102320.13;2076747;28;20663;-55
2023/04/16 01:56:01;;;;;;;;;;;;;;;15.83;56.62;102324.44;2072359;28;19925;-56
2023/04/16 01:57:03;;;;;;;;;;;;;;;15.82;56.50;102322.84;2070584;28;20357;-54
2023/04/16 01:58:09;;;;;;;;;;;;;;;15.82;56.54;102325.59;2067673;28;19926;-56
2023/04/16 01:59:11;;;;;;;;;;;;;;;15.82;56.63;102320.13;2059559;28;19930;-56
2023/04/16 02:00:16;;;;;;;;;;;;;;;15.82;56.66;102316.59;2058167;28;19945;-54
2023/04/16 02:01:21;;;;;;;;;;;;;;;15.82;56.72;102331.03;2061433;28;19932;-55
2023/04/16 02:02:26;;;;;;;;;;;;;;;15.83;56.66;102319.00;2075810;28;20324;-53
2023/04/16 02:03:30;;;;;;;;;;;;;;;15.83;56.49;102323.63;2071565;28;20347;-54
2023/04/16 02:04:33;;;;;;;;;;;;;;;15.82;56.48;102317.41;2072770;28;19929;-54
2023/04/16 02:05:34;;;;;;;;;;;;;;;15.82;56.46;102325.59;2070461;28;19933;-55
2023/04/16 02:06:37;;;;;;;;;;;;;;;15.82;56.68;102313.88;2071945;28;19937;-55
2023/04/16 02:07:39;;;;;;;;;;;;;;;15.83;56.62;102329.09;2072328;28;20041;-53
2023/04/16 02:08:43;;;;;;;;;;;;;;;15.81;56.58;102318.53;2065792;28;19984;-54
2023/04/16 02:09:45;;;;;;;;;;;;;;;15.82;56.52;102325.59;2062619;28;20329;-55
2023/04/16 02:10:48;;;;;;;;;;;;;;;15.82;56.45;102324.78;2073812;28;19926;-54
2023/04/16 02:11:50;;;;;;;;;;;;;;;15.81;56.73;102323.97;2057604;28;19937;-55
2023/04/16 02:12:52;;;;;;;;;;;;;;;15.82;56.60;102324.78;2063659;28;20004;-54
2023/04/16 02:13:54;;;;;;;;;;;;;;;15.81;56.48;102328.66;2062037;28;20344;-55
2023/04/16 02:14:57;;;;;;;;;;;;;;;15.81;56.66;102323.97;2066656;28;20467;-55
2023/04/16 02:16:01;;;;;;;;;;;;;;;15.81;56.58;102323.97;2063240;28;20538;-55
2023/04/16 02:17:14;;;;;;;;;;;;;;;15.81;56.61;102315.81;2067101;28;20456;-55
2023/04/16 02:18:17;;;;;;;;;;;;;;;15.82;56.45;102314.69;2071650;28;20019;-54
2023/04/16 02:19:20;;;;;;;;;;;;;;;15.82;56.52;102313.88;2063186;28;19929;-54
2023/04/16 02:20:22;;;;;;;;;;;;;;;15.81;56.60;102318.53;2055918;28;19926;-55
2023/04/16 02:21:30;;;;;;;;;;;;;;;15.81;56.58;102318.53;2058369;28;19930;-55
2023/04/16 02:22:32;;;;;;;;;;;;;;;15.81;56.46;102313.09;2064178;28;19933;-55
2023/04/16 02:23:34;;;;;;;;;;;;;;;15.81;56.74;102312.31;2071830;28;20008;-53
2023/04/16 02:24:38;;;;;;;;;;;;;;;15.81;56.63;102321.25;2075137;28;19925;-55
2023/04/16 02:25:45;;;;;;;;;;;;;;;15.82;56.58;102314.69;2062953;28;19930;-54
2023/04/16 02:26:47;;;;;;;;;;;;;;;15.81;56.68;102313.09;2062181;28;19929;-55
2023/04/16 02:27:52;;;;;;;;;;;;;;;15.81;56.47;102323.97;2064369;28;19930;-55
2023/04/16 02:29:06;;;;;;;;;;;;;;;15.81;56.61;102323.97;2057462;28;19945;-55
2023/04/16 02:30:14;;;;;;;;;;;;;;;15.78;56.44;102305.59;2067429;28;19976;-55
2023/04/16 02:31:18;;;;;;;;;;;;;;;15.82;56.63;102313.88;2071862;28;20474;-55
2023/04/16 02:32:21;;;;;;;;;;;;;;;15.82;56.47;102303.00;2064464;28;20330;-54
2023/04/16 02:33:25;;;;;;;;;;;;;;;15.81;56.47;102304.91;2066280;28;19929;-54
2023/04/16 02:34:33;;;;;;;;;;;;;;;15.81;56.60;102298.69;2067100;28;19933;-55
2023/04/16 02:35:36;;;;;;;;;;;;;;;15.80;56.62;102306.06;2066105;28;20037;-53
2023/04/16 02:36:39;;;;;;;;;;;;;;;15.80;56.71;102295.16;2062520;28;20024;-54
2023/04/16 02:37:41;;;;;;;;;;;;;;;15.80;56.57;102300.59;2072121;28;20016;-54
2023/04/16 02:38:43;;;;;;;;;;;;;;;15.80;56.65;102302.53;2065060;28;20375;-55
2023/04/16 02:39:48;;;;;;;;;;;;;;;15.79;56.65;102304.44;2072156;28;19929;-56
2023/04/16 02:40:50;;;;;;;;;;;;;;;15.80;56.55;102300.59;2059823;28;19926;-56
2023/04/16 02:41:53;;;;;;;;;;;;;;;15.80;56.41;102306.06;2070847;28;19956;-56
2023/04/16 02:42:55;;;;;;;;;;;;;;;15.80;56.76;102306.06;2071184;28;20142;-56
2023/04/16 02:43:58;;;;;;;;;;;;;;;15.81;56.53;102313.09;2071225;28;20013;-55
2023/04/16 02:44:59;;;;;;;;;;;;;;;15.79;56.43;102309.91;2071693;28;19972;-56
2023/04/16 02:46:02;;;;;;;;;;;;;;;15.80;56.48;102303.34;2080637;28;19925;-56
2023/04/16 02:47:04;;;;;;;;;;;;;;;15.80;56.50;102307.97;2078896;28;19976;-55
2023/04/16 02:48:08;;;;;;;;;;;;;;;15.81;56.60;102307.63;2074695;28;20278;-55
2023/04/16 02:49:10;;;;;;;;;;;;;;;15.80;56.36;102308.78;2073384;28;19929;-54
2023/04/16 02:50:13;;;;;;;;;;;;;;;15.80;56.58;102306.06;2064755;28;19926;-55
2023/04/16 02:51:14;;;;;;;;;;;;;;;15.81;56.54;102306.84;2055422;28;19937;-55
2023/04/16 02:52:17;;;;;;;;;;;;;;;15.81;56.63;102304.91;2060679;28;19988;-55
2023/04/16 02:53:19;;;;;;;;;;;;;;;15.80;56.62;102311.50;2055018;28;20000;-55
2023/04/16 02:54:21;;;;;;;;;;;;;;;15.81;56.52;102313.09;2063496;28;19929;-56
2023/04/16 02:55:24;;;;;;;;;;;;;;;15.79;56.42;102304.44;2066821;28;19930;-55
2023/04/16 02:56:27;;;;;;;;;;;;;;;15.80;56.43;102308.78;2077225;28;20027;-55
2023/04/16 02:57:29;;;;;;;;;;;;;;;15.80;56.43;102310.69;2076312;28;20421;-54
2023/04/16 02:58:31;;;;;;;;;;;;;;;15.80;56.58;102306.06;2067009;28;20393;-54
2023/04/16 02:59:33;;;;;;;;;;;;;;;15.79;56.45;102309.91;2063624;28;19958;-56
2023/04/16 03:00:36;;;;;;;;;;;;;;;15.79;56.62;102304.44;2063431;28;19934;-55
2023/04/16 03:01:37;;;;;;;;;;;;;;;15.80;56.61;102314.22;2054168;28;19930;-56
2023/04/16 03:02:41;;;;;;;;;;;;;;;15.79;56.67;102309.91;2063276;28;20020;-55
2023/04/16 03:03:43;;;;;;;;;;;;;;;15.80;56.63;102310.69;2073008;28;20007;-56
2023/04/16 03:04:45;;;;;;;;;;;;;;;15.79;56.59;102312.63;2075004;28;19930;-54
2023/04/16 03:05:47;;;;;;;;;;;;;;;15.79;56.37;102320.00;2072173;28;20004;-55
2023/04/16 03:06:51;;;;;;;;;;;;;;;15.79;56.30;102306.41;2062597;28;19936;-54
2023/04/16 03:07:55;;;;;;;;;;;;;;;15.80;56.51;102314.22;2065547;28;19971;-53
2023/04/16 03:08:58;;;;;;;;;;;;;;;15.79;56.52;102312.63;2069016;28;20016;-56
2023/04/16 03:10:00;;;;;;;;;;;;;;;15.79;56.54;102315.34;2062438;28;19929;-54
2023/04/16 03:11:04;;;;;;;;;;;;;;;15.79;56.44;102320.78;2064611;28;20337;-56
2023/04/16 03:12:06;;;;;;;;;;;;;;;15.79;56.49;102320.00;2072684;28;20356;-54
2023/04/16 03:13:08;;;;;;;;;;;;;;;15.79;56.48;102315.34;2068672;28;20012;-56
2023/04/16 03:14:10;;;;;;;;;;;;;;;15.78;56.32;102311.03;2070140;28;19933;-55
2023/04/16 03:15:13;;;;;;;;;;;;;;;15.80;56.49;102310.69;2071345;28;19951;-56
2023/04/16 03:16:14;;;;;;;;;;;;;;;15.80;56.46;102307.97;2076995;28;19961;-53
2023/04/16 03:17:17;;;;;;;;;;;;;;;15.81;56.48;102323.97;2062773;28;19983;-55
2023/04/16 03:18:19;;;;;;;;;;;;;;;15.79;56.51;102309.91;2064868;28;20027;-54
2023/04/16 03:19:24;;;;;;;;;;;;;;;15.80;56.51;102324.31;2063724;28;19930;-55
2023/04/16 03:20:26;;;;;;;;;;;;;;;15.79;56.80;102318.06;2067092;28;19984;-54
2023/04/16 03:21:28;;;;;;;;;;;;;;;15.79;56.55;102325.47;2055505;28;20418;-56
2023/04/16 03:22:32;;;;;;;;;;;;;;;15.79;56.59;102326.22;2053078;28;20378;-56
2023/04/16 03:23:35;;;;;;;;;;;;;;;15.79;56.63;102325.47;2070862;28;20699;-55
2023/04/16 03:24:38;;;;;;;;;;;;;;;15.79;56.54;102320.00;2070589;28;20040;-56
2023/04/16 03:25:42;;;;;;;;;;;;;;;15.79;56.49;102320.78;2064038;28;19933;-53
2023/04/16 03:26:45;;;;;;;;;;;;;;;15.80;56.39;102327.03;2071341;28;20767;-56
2023/04/16 03:27:48;;;;;;;;;;;;;;;15.79;56.48;102328.19;2059874;28;20236;-55
2023/04/16 03:28:50;;;;;;;;;;;;;;;15.79;56.48;102326.22;2063064;28;19936;-55
2023/04/16 03:29:53;;;;;;;;;;;;;;;15.79;56.42;102320.78;2069484;28;19932;-56
2023/04/16 03:30:55;;;;;;;;;;;;;;;15.80;56.40;102321.59;2070748;28;20997;-56
2023/04/16 03:31:58;;;;;;;;;;;;;;;15.79;56.52;102326.22;2066181;28;19930;-56
2023/04/16 03:33:00;;;;;;;;;;;;;;;15.78;56.50;102327.38;2069196;28;19925;-56
2023/04/16 03:34:03;;;;;;;;;;;;;;;15.78;56.50;102324.66;2063088;28;19984;-55
2023/04/16 03:35:06;;;;;;;;;;;;;;;15.79;56.82;102331.69;2055184;28;19965;-56
2023/04/16 03:36:09;;;;;;;;;;;;;;;15.78;56.33;102335.56;2066091;28;20017;-54
2023/04/16 03:37:11;;;;;;;;;;;;;;;15.78;56.52;102327.38;2075950;28;20017;-56
2023/04/16 03:38:14;;;;;;;;;;;;;;;15.78;56.67;102335.56;2071971;28;20454;-56
2023/04/16 03:39:16;;;;;;;;;;;;;;;15.78;56.54;102335.56;2072133;28;19929;-54
2023/04/16 03:40:18;;;;;;;;;;;;;;;15.78;56.64;102329.28;2064002;28;19969;-56
2023/04/16 03:41:20;;;;;;;;;;;;;;;15.78;56.41;102327.38;2063421;28;19933;-54
2023/04/16 03:42:24;;;;;;;;;;;;;;;15.79;56.52;102326.22;2063136;28;20019;-56
2023/04/16 03:43:26;;;;;;;;;;;;;;;15.79;56.28;102333.63;2070825;28;20493;-55
2023/04/16 03:44:29;;;;;;;;;;;;;;;15.78;56.32;102332.81;2071642;28;20013;-56
2023/04/16 03:45:30;;;;;;;;;;;;;;;15.78;56.33;102335.56;2063086;28;19930;-56
2023/04/16 03:46:33;;;;;;;;;;;;;;;15.79;56.44;102336.34;2068751;28;19933;-55
2023/04/16 03:47:35;;;;;;;;;;;;;;;15.78;56.40;102324.66;2071810;28;20696;-53
2023/04/16 03:48:38;;;;;;;;;;;;;;;15.78;56.42;102330.09;2062874;28;20381;-56
2023/04/16 03:49:40;;;;;;;;;;;;;;;15.78;56.48;102329.28;2054503;28;19997;-55
2023/04/16 03:50:45;;;;;;;;;;;;;;;15.78;56.55;102330.09;2063400;28;19933;-56
2023/04/16 03:51:48;;;;;;;;;;;;;;;15.78;56.50;102329.28;2054405;28;20373;-54
2023/04/16 03:52:50;;;;;;;;;;;;;;;15.78;56.52;102330.09;2054640;28;19976;-54
2023/04/16 03:53:52;;;;;;;;;;;;;;;15.78;56.63;102326.56;2064362;28;19934;-56
2023/04/16 03:54:55;;;;;;;;;;;;;;;15.77;56.57;102331.25;2063253;28;19930;-56
2023/04/16 03:56:02;;;;;;;;;;;;;;;15.79;56.53;102339.06;2067714;28;19926;-55
2023/04/16 03:57:05;;;;;;;;;;;;;;;15.78;56.43;102332.81;2069331;28;20019;-55
2023/04/16 03:58:08;;;;;;;;;;;;;;;15.78;56.44;102332.81;2067200;28;19940;-55
2023/04/16 03:59:11;;;;;;;;;;;;;;;15.79;56.41;102341.81;2063567;28;19957;-55
2023/04/16 04:00:13;;;;;;;;;;;;;;;15.77;56.57;102328.53;2071327;28;19926;-55
2023/04/16 04:01:16;;;;;;;;;;;;;;;15.79;56.45;102341.81;2070550;28;19925;-55
2023/04/16 04:02:17;;;;;;;;;;;;;;;15.78;56.63;102338.28;2073270;28;19972;-55
2023/04/16 04:03:20;;;;;;;;;;;;;;;15.78;56.46;102334.75;2074719;28;19964;-56
2023/04/16 04:04:23;;;;;;;;;;;;;;;15.78;56.62;102340.19;2064714;28;19950;-55
2023/04/16 04:05:26;;;;;;;;;;;;;;;15.78;56.37;102337.47;2062974;28;19976;-54
2023/04/16 04:06:28;;;;;;;;;;;;;;;15.78;56.50;102337.47;2077919;28;19929;-55
2023/04/16 04:07:30;;;;;;;;;;;;;;;15.78;56.35;102335.56;2061445;28;19929;-62
2023/04/16 04:08:32;;;;;;;;;;;;;;;15.78;56.50;102334.75;2062679;28;19980;-53
2023/04/16 04:09:34;;;;;;;;;;;;;;;15.78;56.58;102341.00;2070464;28;20008;-56
2023/04/16 04:10:39;;;;;;;;;;;;;;;15.78;56.44;102334.75;2061294;28;20298;-54
2023/04/16 04:11:43;;;;;;;;;;;;;;;15.79;56.45;102341.81;2070166;28;19929;-55
2023/04/16 04:12:45;;;;;;;;;;;;;;;15.78;56.43;102335.56;2070596;28;19929;-56
2023/04/16 04:13:49;;;;;;;;;;;;;;;15.79;56.31;102344.53;2063385;28;19977;-54
2023/04/16 04:14:50;;;;;;;;;;;;;;;15.78;56.62;102346.44;2058048;28;19929;-55
2023/04/16 04:15:53;;;;;;;;;;;;;;;15.78;56.52;102345.63;2054616;28;20399;-55
2023/04/16 04:16:56;;;;;;;;;;;;;;;15.78;56.52;102343.72;2063115;28;20030;-54
2023/04/16 04:17:58;;;;;;;;;;;;;;;15.78;56.55;102346.44;2066746;28;19936;-56
2023/04/16 04:19:00;;;;;;;;;;;;;;;15.78;56.49;102346.44;2070042;28;19961;-54
2023/04/16 04:20:03;;;;;;;;;;;;;;;15.78;56.61;102351.88;2064930;28;19933;-55
2023/04/16 04:21:05;;;;;;;;;;;;;;;15.78;56.47;102351.88;2062555;28;21227;-56
2023/04/16 04:22:08;;;;;;;;;;;;;;;15.77;56.33;102344.88;2054629;28;19934;-56
2023/04/16 04:23:11;;;;;;;;;;;;;;;15.78;56.47;102349.16;2066401;28;19929;-52
2023/04/16 04:24:14;;;;;;;;;;;;;;;15.78;56.67;102346.44;2067026;28;20012;-54
2023/04/16 04:25:16;;;;;;;;;;;;;;;15.78;56.41;102345.63;2058197;28;20386;-55
2023/04/16 04:26:19;;;;;;;;;;;;;;;15.78;56.51;102351.88;2078359;28;20019;-53
2023/04/16 04:27:20;;;;;;;;;;;;;;;15.78;56.60;102346.44;2058816;28;19930;-56
2023/04/16 04:28:23;;;;;;;;;;;;;;;15.78;56.44;102351.09;2063440;28;20348;-55
2023/04/16 04:29:26;;;;;;;;;;;;;;;15.78;56.40;102351.09;2072070;28;19929;-54
2023/04/16 04:30:29;;;;;;;;;;;;;;;15.78;56.18;102362.78;2069245;28;19941;-55
2023/04/16 04:31:30;;;;;;;;;;;;;;;15.78;56.58;102351.88;2070672;28;20730;-55
2023/04/16 04:32:33;;;;;;;;;;;;;;;15.78;56.33;102357.34;2070894;28;19968;-55
2023/04/16 04:33:35;;;;;;;;;;;;;;;15.79;56.56;102352.69;2070165;28;20020;-56
2023/04/16 04:34:38;;;;;;;;;;;;;;;15.78;56.23;102362.78;2062586;28;19995;-55
2023/04/16 04:35:40;;;;;;;;;;;;;;;15.78;56.48;102356.53;2056566;28;19938;-56
2023/04/16 04:36:43;;;;;;;;;;;;;;;15.77;56.27;102354.94;2063966;28;20415;-56
2023/04/16 04:37:47;;;;;;;;;;;;;;;15.78;56.45;102357.34;2063180;28;19929;-54
2023/04/16 04:38:53;;;;;;;;;;;;;;;15.78;56.36;102362.78;2060320;28;20071;-55
2023/04/16 04:39:55;;;;;;;;;;;;;;;15.79;56.32;102358.13;2062937;28;19925;-56
2023/04/16 04:40:59;;;;;;;;;;;;;;;15.78;56.33;102360.06;2055231;28;20053;-56
2023/04/16 04:42:03;;;;;;;;;;;;;;;15.78;56.35;102362.78;2054964;28;19930;-56
2023/04/16 04:43:06;;;;;;;;;;;;;;;15.78;56.53;102365.50;2066478;28;20375;-56
2023/04/16 04:44:08;;;;;;;;;;;;;;;15.78;56.52;102360.06;2063652;28;20133;-55
2023/04/16 04:45:12;;;;;;;;;;;;;;;15.78;56.58;102357.34;2054982;28;19957;-56
2023/04/16 04:46:15;;;;;;;;;;;;;;;15.78;56.36;102367.44;2062169;28;20272;-54
2023/04/16 04:47:18;;;;;;;;;;;;;;;15.78;56.35;102361.97;2071458;28;20028;-54
2023/04/16 04:48:25;;;;;;;;;;;;;;;15.78;56.40;102361.97;2076757;28;20419;-56
2023/04/16 04:49:27;;;;;;;;;;;;;;;15.78;56.41;102368.22;2077186;28;20344;-55
2023/04/16 04:50:29;;;;;;;;;;;;;;;15.78;56.36;102373.69;2071069;28;19960;-56
2023/04/16 04:51:32;;;;;;;;;;;;;;;15.77;56.45;102361.22;2076237;28;20010;-56
2023/04/16 04:52:35;;;;;;;;;;;;;;;15.77;56.50;102363.94;2072472;28;19934;-54
2023/04/16 04:53:38;;;;;;;;;;;;;;;15.78;56.38;102361.97;2068024;28;19937;-55
2023/04/16 04:54:40;;;;;;;;;;;;;;;15.77;56.55;102363.94;2068987;28;19934;-53
2023/04/16 04:55:43;;;;;;;;;;;;;;;15.78;56.47;102370.94;2072298;28;19929;-54
2023/04/16 04:56:45;;;;;;;;;;;;;;;15.77;56.29;102361.22;2070776;28;19937;-54
2023/04/16 04:57:48;;;;;;;;;;;;;;;15.78;56.66;102367.44;2063710;28;19956;-55
2023/04/16 04:58:50;;;;;;;;;;;;;;;15.78;56.26;102379.13;2065721;28;19933;-55
2023/04/16 04:59:54;;;;;;;;;;;;;;;15.79;56.53;102369.81;2063782;28;20355;-55
2023/04/16 05:00:58;;;;;;;;;;;;;;;15.78;56.43;102372.88;2064078;28;19934;-56
2023/04/16 05:02:02;;;;;;;;;;;;;;;15.79;56.58;102377.19;2071491;28;20356;-54
2023/04/16 05:03:04;;;;;;;;;;;;;;;15.77;56.45;102374.81;2066230;28;19930;-55
2023/04/16 05:04:07;;;;;;;;;;;;;;;15.78;56.46;102373.69;2063672;28;19980;-55
2023/04/16 05:05:09;;;;;;;;;;;;;;;15.78;56.85;102372.88;2073976;28;19941;-56
2023/04/16 05:06:12;;;;;;;;;;;;;;;15.77;56.44;102380.25;2076339;28;19933;-54
2023/04/16 05:07:13;;;;;;;;;;;;;;;15.78;56.31;102372.88;2080434;28;20277;-56
2023/04/16 05:08:16;;;;;;;;;;;;;;;15.77;56.48;102377.53;2075718;28;20296;-53
2023/04/16 05:09:18;;;;;;;;;;;;;;;15.78;56.26;102372.88;2071602;28;19937;-56
2023/04/16 05:10:20;;;;;;;;;;;;;;;15.77;56.53;102383.00;2071852;28;20331;-55
2023/04/16 05:11:22;;;;;;;;;;;;;;;15.78;56.33;102383.75;2070640;28;19929;-56
2023/04/16 05:12:25;;;;;;;;;;;;;;;15.78;56.55;102368.22;2073801;28;19929;-54
2023/04/16 05:13:27;;;;;;;;;;;;;;;15.78;56.45;102383.75;2072166;28;20298;-54
2023/04/16 05:14:29;;;;;;;;;;;;;;;15.78;56.51;102373.69;2065721;28;19940;-55
2023/04/16 05:15:31;;;;;;;;;;;;;;;15.77;56.45;102377.53;2070454;28;19925;-55
2023/04/16 05:16:36;;;;;;;;;;;;;;;15.78;56.34;102381.03;2072851;28;20403;-56
2023/04/16 05:17:38;;;;;;;;;;;;;;;15.77;56.50;102380.25;2069120;28;19929;-56
2023/04/16 05:18:41;;;;;;;;;;;;;;;15.78;56.33;102378.31;2072228;28;19952;-54
2023/04/16 05:19:42;;;;;;;;;;;;;;;15.78;56.30;102383.75;2072931;28;19930;-58
2023/04/16 05:20:45;;;;;;;;;;;;;;;15.78;56.44;102379.13;2073317;28;20326;-53
2023/04/16 05:21:47;;;;;;;;;;;;;;;15.78;56.52;102384.56;2071418;28;19980;-56
2023/04/16 05:22:49;;;;;;;;;;;;;;;15.78;56.47;102389.22;2069453;28;20517;-56